createdAt,value
2022-08-07T00:01:12.685Z,2.20
2022-08-07T00:06:37.396Z,2.45
2022-08-07T00:11:55.959Z,2.90
2022-08-07T00:17:07.534Z,2.43
2022-08-07T00:22:30.796Z,2.92
2022-08-07T00:27:52.515Z,2.78
2022-08-07T00:32:57.594Z,2.70
2022-08-07T00:38:01.673Z,2.80
2022-08-07T00:43:04.355Z,2.83
2022-08-07T00:48:12.902Z,3.00
2022-08-07T00:53:15.838Z,3.00
2022-08-07T00:58:26.167Z,2.72
2022-08-07T01:03:57.127Z,3.10
2022-08-07T01:09:00.686Z,2.75
2022-08-07T01:14:10.276Z,2.65
2022-08-07T01:19:18.303Z,3.17
2022-08-07T01:24:24.758Z,2.80
2022-08-07T01:29:31.519Z,3.15
2022-08-07T01:34:37.536Z,3.38
2022-08-07T01:39:52.319Z,3.25
2022-08-07T01:45:18.209Z,3.20
2022-08-07T01:50:36.586Z,2.90
2022-08-07T01:55:56.000Z,3.08
2022-08-07T02:01:58.779Z,2.95
2022-08-07T02:06:34.886Z,3.63
2022-08-07T02:12:02.848Z,3.78
2022-08-07T02:17:24.803Z,3.60
2022-08-07T02:22:41.257Z,3.22
2022-08-07T02:27:51.904Z,3.63
2022-08-07T02:33:07.169Z,3.50
2022-08-07T02:38:15.743Z,3.47
2022-08-07T02:43:19.028Z,3.42
2022-08-07T02:48:22.402Z,3.30
2022-08-07T02:53:38.552Z,3.35
2022-08-07T02:59:02.720Z,4.10
2022-08-07T03:04:14.890Z,3.83
2022-08-07T03:09:43.444Z,3.75
2022-08-07T03:14:56.311Z,3.85
2022-08-07T03:20:06.955Z,3.55
2022-08-07T03:25:18.249Z,3.70
2022-08-07T03:30:31.902Z,3.70
2022-08-07T03:35:53.508Z,3.72
2022-08-07T03:41:04.940Z,3.63
2022-08-07T03:46:18.490Z,4.55
2022-08-07T03:51:30.673Z,3.63
2022-08-07T03:56:59.764Z,4.78
2022-08-07T04:02:25.915Z,4.28
2022-08-07T04:07:48.707Z,4.20
2022-08-07T04:13:15.710Z,4.40
2022-08-07T04:18:59.840Z,4.38
2022-08-07T04:24:30.879Z,3.70
2022-08-07T04:30:04.907Z,4.25
2022-08-07T04:35:51.347Z,4.32
2022-08-07T04:41:19.264Z,4.25
2022-08-07T04:47:08.492Z,4.22
2022-08-07T04:54:01.311Z,4.30
2022-08-07T05:00:11.023Z,4.70
2022-08-07T05:05:51.921Z,5.00
2022-08-07T05:11:26.099Z,5.13
2022-08-07T05:16:52.915Z,5.45
2022-08-07T05:22:26.655Z,5.10
2022-08-07T05:28:15.829Z,4.75
2022-08-07T05:33:37.178Z,4.72
2022-08-07T05:39:00.561Z,4.80
2022-08-07T05:44:29.429Z,4.15
2022-08-07T05:49:53.865Z,4.45
2022-08-07T05:55:17.785Z,4.28
2022-08-07T06:00:22.451Z,4.60
2022-08-07T06:05:33.472Z,5.43
2022-08-07T06:10:42.724Z,4.60
2022-08-07T06:15:49.936Z,4.70
2022-08-07T06:22:14.461Z,4.85
2022-08-07T06:26:28.355Z,6.50
2022-08-07T06:31:46.531Z,6.22
2022-08-07T06:36:54.602Z,7.90
2022-08-07T06:42:33.014Z,8.82
2022-08-07T06:48:01.698Z,9.80
2022-08-07T06:53:49.163Z,9.32
2022-08-07T06:58:37.970Z,9.98
2022-08-07T07:03:50.228Z,9.48
2022-08-07T07:09:21.632Z,8.38
2022-08-07T07:14:50.525Z,9.15
2022-08-07T07:19:59.179Z,7.65
2022-08-07T07:26:30.417Z,6.90
2022-08-07T07:30:38.060Z,6.55
2022-08-07T07:35:54.626Z,5.80
2022-08-07T07:41:09.560Z,5.90
2022-08-07T07:46:37.036Z,5.05
2022-08-07T07:51:57.555Z,5.13
2022-08-07T07:57:02.955Z,4.75
2022-08-07T08:02:10.307Z,4.90
2022-08-07T08:07:14.311Z,4.55
2022-08-07T08:12:51.229Z,4.20
2022-08-07T08:17:57.483Z,4.40
2022-08-07T08:23:20.824Z,4.50
2022-08-07T08:28:38.044Z,4.13
2022-08-07T08:33:49.649Z,4.40
2022-08-07T08:38:54.622Z,4.22
2022-08-07T08:44:09.311Z,4.03
2022-08-07T08:49:46.456Z,4.97
2022-08-07T08:55:07.954Z,4.07
2022-08-07T09:00:12.388Z,4.13
2022-08-07T09:05:36.623Z,4.03
2022-08-07T09:10:47.179Z,3.55
2022-08-07T09:16:23.065Z,3.50
2022-08-07T09:22:09.726Z,3.08
2022-08-07T09:27:24.399Z,3.70
2022-08-07T09:32:49.841Z,3.58
2022-08-07T09:38:24.950Z,3.45
2022-08-07T09:44:03.470Z,3.40
2022-08-07T09:50:01.495Z,3.58
2022-08-07T09:54:47.519Z,3.15
2022-08-07T10:00:04.275Z,3.38
2022-08-07T10:05:59.115Z,2.83
2022-08-07T10:12:01.861Z,3.58
2022-08-07T10:17:14.327Z,3.40
2022-08-07T10:22:43.154Z,3.20
2022-08-07T10:28:12.618Z,3.08
2022-08-07T10:34:06.199Z,3.17
2022-08-07T10:39:42.018Z,3.00
2022-08-07T10:45:57.764Z,3.08
2022-08-07T10:50:57.430Z,2.65
2022-08-07T10:56:11.209Z,2.83
2022-08-07T11:01:52.108Z,2.92
2022-08-07T11:12:39.613Z,2.58
2022-08-07T11:17:54.562Z,2.80
2022-08-07T11:23:02.948Z,2.80
2022-08-07T11:28:34.602Z,2.75
2022-08-07T11:33:53.526Z,2.90
2022-08-07T11:39:10.269Z,3.20
2022-08-07T11:44:33.145Z,2.90
2022-08-07T11:50:18.854Z,2.55
2022-08-07T11:56:15.590Z,2.85
2022-08-07T12:01:06.705Z,2.30
2022-08-07T12:06:37.013Z,2.50
2022-08-07T12:12:10.576Z,2.45
2022-08-07T12:17:20.285Z,2.28
2022-08-07T12:22:52.011Z,2.20
2022-08-07T12:28:10.249Z,2.20
2022-08-07T12:33:28.359Z,2.55
2022-08-07T12:38:42.639Z,2.50
2022-08-07T12:43:58.767Z,2.22
2022-08-07T12:49:40.185Z,2.92
2022-08-07T12:55:05.131Z,3.03
2022-08-07T13:00:16.379Z,3.17
2022-08-07T13:06:01.975Z,3.00
2022-08-07T13:11:30.778Z,3.15
2022-08-07T13:17:08.797Z,3.45
2022-08-07T13:22:31.333Z,3.40
2022-08-07T13:28:12.553Z,3.30
2022-08-07T13:34:31.381Z,3.40
2022-08-07T13:38:57.047Z,3.40
2022-08-07T13:44:05.142Z,3.00
2022-08-07T13:50:33.799Z,3.45
2022-08-07T13:54:41.970Z,3.00
2022-08-07T13:59:55.714Z,3.00
2022-08-07T14:05:02.431Z,3.10
2022-08-07T14:10:21.717Z,2.88
2022-08-07T14:15:42.577Z,2.35
2022-08-07T14:20:54.596Z,2.25
2022-08-07T14:26:10.787Z,2.00
2022-08-07T14:31:43.356Z,2.00
2022-08-07T14:36:56.172Z,2.13
2022-08-07T14:42:22.268Z,2.05
2022-08-07T14:47:25.885Z,2.03
2022-08-07T14:52:33.975Z,2.10
2022-08-07T15:08:54.523Z,2.10
2022-08-07T15:14:00.747Z,2.30
2022-08-07T15:19:17.832Z,2.10
2022-08-07T15:35:40.684Z,2.25
2022-08-07T15:41:00.144Z,2.33
2022-08-07T15:46:32.110Z,2.38
2022-08-07T15:57:01.360Z,2.30
2022-08-07T16:02:05.562Z,2.25
2022-08-07T16:08:33.270Z,2.35
2022-08-07T16:13:17.659Z,2.85
2022-08-07T16:19:03.369Z,2.80
2022-08-07T16:24:34.201Z,2.67
2022-08-07T16:30:11.334Z,3.08
2022-08-07T16:35:58.906Z,3.05
2022-08-07T16:41:02.861Z,3.13
2022-08-07T16:52:49.183Z,2.90
2022-08-07T16:58:01.513Z,3.63
2022-08-07T17:03:17.446Z,3.30
2022-08-07T17:09:04.191Z,3.55
2022-08-07T17:14:19.529Z,3.45
2022-08-07T17:20:01.937Z,3.58
2022-08-07T17:25:51.083Z,3.78
2022-08-07T17:31:00.499Z,3.33
2022-08-07T17:36:26.165Z,3.38
2022-08-07T17:42:03.843Z,3.75
2022-08-07T17:47:16.814Z,4.07
2022-08-07T17:52:30.910Z,3.60
2022-08-07T17:58:01.393Z,4.03
2022-08-07T18:03:18.578Z,3.65
2022-08-07T18:09:00.643Z,3.78
2022-08-07T18:14:10.347Z,4.00
2022-08-07T18:21:11.699Z,3.90
2022-08-07T18:25:24.173Z,3.70
2022-08-07T18:30:47.192Z,3.75
2022-08-07T18:36:33.242Z,3.78
2022-08-07T18:42:13.078Z,3.80
2022-08-07T18:47:45.031Z,3.60
2022-08-07T18:53:15.252Z,4.10
2022-08-07T18:58:38.252Z,4.55
2022-08-07T19:03:56.738Z,4.10
2022-08-07T19:09:55.577Z,4.10
2022-08-07T19:16:03.406Z,4.13
2022-08-07T19:21:09.789Z,5.50
2022-08-07T19:26:24.006Z,4.57
2022-08-07T19:32:07.918Z,4.28
2022-08-07T19:37:10.059Z,4.47
2022-08-07T19:42:24.665Z,4.35
2022-08-07T19:47:36.548Z,4.57
2022-08-07T19:52:42.160Z,5.60
2022-08-07T19:58:01.572Z,5.10
2022-08-07T20:03:34.767Z,4.80
2022-08-07T20:08:40.958Z,4.75
2022-08-07T20:13:54.151Z,5.38
2022-08-07T20:19:00.372Z,4.90
2022-08-07T20:24:04.255Z,4.85
2022-08-07T20:29:16.955Z,5.22
2022-08-07T20:34:50.210Z,6.53
2022-08-07T20:40:03.072Z,5.72
2022-08-07T20:45:33.371Z,5.15
2022-08-07T20:50:32.733Z,4.60
2022-08-07T21:00:44.512Z,5.38
2022-08-07T21:05:57.096Z,4.72
2022-08-07T21:11:01.687Z,4.95
2022-08-07T21:16:09.161Z,5.10
2022-08-07T21:21:12.629Z,4.80
2022-08-07T21:26:39.086Z,4.72
2022-08-07T21:32:47.010Z,4.70
2022-08-07T21:37:57.279Z,5.20
2022-08-07T21:43:23.285Z,5.10
2022-08-07T21:48:34.360Z,5.55
2022-08-07T21:53:53.093Z,4.95
2022-08-07T21:58:56.118Z,4.70
2022-08-07T22:04:02.667Z,5.40
2022-08-07T22:09:10.998Z,4.80
2022-08-07T22:14:15.302Z,4.90
2022-08-07T22:19:47.301Z,5.53
2022-08-07T22:24:57.485Z,4.80
2022-08-07T22:30:12.361Z,4.60
2022-08-07T22:35:15.384Z,4.68
2022-08-07T22:40:43.120Z,4.43
2022-08-07T22:46:47.042Z,4.70
2022-08-07T22:52:03.505Z,4.97
2022-08-07T22:57:43.209Z,4.82
2022-08-07T23:03:13.160Z,4.82
2022-08-07T23:08:24.286Z,4.95
2022-08-07T23:14:10.607Z,5.38
2022-08-07T23:20:16.224Z,5.30
2022-08-07T23:25:47.855Z,5.65
2022-08-07T23:31:11.936Z,5.35
2022-08-07T23:36:54.772Z,5.40
2022-08-07T23:42:53.435Z,5.45
2022-08-07T23:48:02.609Z,5.28
2022-08-07T23:53:51.041Z,5.82
